createdAt,value
2022-12-17T00:00:09.905Z,18.73
2022-12-17T00:02:55.784Z,19.63
2022-12-17T00:05:41.826Z,21.30
2022-12-17T00:08:28.176Z,14.47
2022-12-17T00:11:16.563Z,18.57
2022-12-17T00:13:58.533Z,17.53
2022-12-17T00:16:45.549Z,13.80
2022-12-17T00:19:31.190Z,15.17
2022-12-17T00:22:16.530Z,17.57
2022-12-17T00:25:02.105Z,20.57
2022-12-17T00:27:47.567Z,27.83
2022-12-17T00:30:33.004Z,22.90
2022-12-17T00:33:20.050Z,22.80
2022-12-17T00:36:10.353Z,28.70
2022-12-17T00:38:55.930Z,16.97
2022-12-17T00:41:42.712Z,20.60
2022-12-17T00:44:28.235Z,20.77
2022-12-17T00:47:13.881Z,21.93
2022-12-17T00:50:00.723Z,18.50
2022-12-17T00:52:46.380Z,21.67
2022-12-17T00:55:32.045Z,22.90
2022-12-17T00:58:17.353Z,23.67
2022-12-17T01:01:02.887Z,22.53
2022-12-17T01:03:48.565Z,19.37
2022-12-17T01:06:35.529Z,17.57
2022-12-17T01:09:26.571Z,15.63
2022-12-17T01:12:12.331Z,20.50
2022-12-17T01:14:58.081Z,15.50
2022-12-17T01:17:40.066Z,18.40
2022-12-17T01:20:26.589Z,14.57
2022-12-17T01:23:22.362Z,15.60
2022-12-17T01:26:11.925Z,23.27
2022-12-17T01:28:57.710Z,19.80
2022-12-17T01:31:43.571Z,20.03
2022-12-17T01:34:29.551Z,21.10
2022-12-17T01:37:15.155Z,22.13
2022-12-17T01:40:02.540Z,18.13
2022-12-17T01:42:56.797Z,20.10
2022-12-17T01:45:42.554Z,22.33
2022-12-17T01:48:35.424Z,21.80
2022-12-17T01:51:22.262Z,17.93
2022-12-17T01:54:09.996Z,19.00
2022-12-17T01:57:00.081Z,17.93
2022-12-17T01:59:54.783Z,17.77
2022-12-17T02:02:40.570Z,16.60
2022-12-17T02:05:26.558Z,15.93
2022-12-17T02:08:22.133Z,19.40
2022-12-17T02:11:16.291Z,19.47
2022-12-17T02:14:09.639Z,17.63
2022-12-17T02:17:00.510Z,16.30
2022-12-17T02:19:56.364Z,20.23
2022-12-17T02:22:53.452Z,20.87
2022-12-17T02:25:47.140Z,17.27
2022-12-17T02:28:34.246Z,15.77
2022-12-17T02:31:20.795Z,17.03
2022-12-17T02:34:07.230Z,19.37
2022-12-17T02:36:53.681Z,16.00
2022-12-17T02:39:39.616Z,16.80
2022-12-17T02:42:25.728Z,22.07
2022-12-17T02:45:13.828Z,13.17
2022-12-17T02:47:59.974Z,14.00
2022-12-17T02:50:45.674Z,16.50
2022-12-17T02:53:31.954Z,16.77
2022-12-17T02:56:25.821Z,18.17
2022-12-17T02:59:11.448Z,13.87
2022-12-17T03:01:59.132Z,13.87
2022-12-17T03:04:44.830Z,16.50
2022-12-17T03:07:30.488Z,11.90
2022-12-17T03:10:16.062Z,14.60
2022-12-17T03:13:01.764Z,10.87
2022-12-17T03:15:47.465Z,10.87
2022-12-17T03:18:34.299Z,10.47
2022-12-17T03:21:19.899Z,10.10
2022-12-17T03:24:05.667Z,11.27
2022-12-17T03:26:51.388Z,11.00
2022-12-17T03:29:37.047Z,7.33
2022-12-17T03:32:23.087Z,8.43
2022-12-17T03:35:10.074Z,10.23
2022-12-17T03:37:55.859Z,11.70
2022-12-17T03:40:41.181Z,11.57
2022-12-17T03:43:27.552Z,16.83
2022-12-17T03:46:13.810Z,12.90
2022-12-17T03:48:59.227Z,8.67
2022-12-17T03:51:46.353Z,11.00
2022-12-17T03:54:31.711Z,12.40
2022-12-17T03:57:17.074Z,13.03
2022-12-17T04:00:02.769Z,12.67
2022-12-17T04:02:48.286Z,12.63
2022-12-17T04:05:34.164Z,10.67
2022-12-17T04:08:21.104Z,10.33
2022-12-17T04:11:06.637Z,11.97
2022-12-17T04:13:52.320Z,16.33
2022-12-17T04:16:38.044Z,10.03
2022-12-17T04:19:23.414Z,10.20
2022-12-17T04:22:08.892Z,12.90
2022-12-17T04:24:55.870Z,11.53
2022-12-17T04:27:41.499Z,10.67
2022-12-17T04:30:27.888Z,12.60
2022-12-17T04:33:13.545Z,13.60
2022-12-17T04:36:01.661Z,16.00
2022-12-17T04:38:47.094Z,13.30
2022-12-17T04:41:33.933Z,17.93
2022-12-17T04:44:19.382Z,15.10
2022-12-17T04:47:04.908Z,15.07
2022-12-17T04:49:50.619Z,17.13
2022-12-17T04:52:36.206Z,15.43
2022-12-17T04:55:21.716Z,15.87
2022-12-17T04:58:08.396Z,14.17
2022-12-17T05:00:53.692Z,19.50
2022-12-17T05:03:39.438Z,16.80
2022-12-17T05:06:27.134Z,16.30
2022-12-17T05:09:12.801Z,16.67
2022-12-17T05:12:13.183Z,16.20
2022-12-17T05:14:59.862Z,17.10
2022-12-17T05:17:45.496Z,13.73
2022-12-17T05:20:31.105Z,19.13
2022-12-17T05:23:23.937Z,17.07
2022-12-17T05:26:14.327Z,13.93
2022-12-17T05:28:59.963Z,14.57
2022-12-17T05:31:47.115Z,14.07
2022-12-17T05:34:32.634Z,17.43
2022-12-17T05:37:18.152Z,15.67
2022-12-17T05:40:07.803Z,17.87
2022-12-17T05:43:02.053Z,14.80
2022-12-17T05:45:47.751Z,17.20
2022-12-17T05:48:34.764Z,15.63
2022-12-17T05:51:20.076Z,19.47
2022-12-17T05:54:05.547Z,13.03
2022-12-17T05:56:51.020Z,20.43
2022-12-17T05:59:36.584Z,14.90
2022-12-17T06:02:22.207Z,16.20
2022-12-17T06:05:09.294Z,14.73
2022-12-17T06:07:55.156Z,15.50
2022-12-17T06:10:40.461Z,17.03
2022-12-17T06:13:26.151Z,12.60
2022-12-17T06:16:11.610Z,16.17
2022-12-17T06:18:57.262Z,17.70
2022-12-17T06:21:55.729Z,20.80
2022-12-17T06:24:45.769Z,17.80
2022-12-17T06:27:32.337Z,15.57
2022-12-17T06:30:19.081Z,18.27
2022-12-17T06:33:04.541Z,23.03
2022-12-17T06:35:49.987Z,20.73
2022-12-17T06:38:36.835Z,16.80
2022-12-17T06:41:22.143Z,22.27
2022-12-17T06:44:07.675Z,16.30
2022-12-17T06:46:53.328Z,21.23
2022-12-17T06:49:38.787Z,23.80
2022-12-17T06:52:24.282Z,21.10
2022-12-17T06:55:16.625Z,16.00
2022-12-17T06:58:02.225Z,18.00
2022-12-17T07:00:47.988Z,21.70
2022-12-17T07:03:33.677Z,22.07
2022-12-17T07:06:19.679Z,25.93
2022-12-17T07:09:05.283Z,23.83
2022-12-17T07:11:52.127Z,29.53
2022-12-17T07:14:37.882Z,29.47
2022-12-17T07:17:23.613Z,30.23
2022-12-17T07:20:09.097Z,24.37
2022-12-17T07:22:54.829Z,30.90
2022-12-17T07:25:44.440Z,24.03
2022-12-17T07:28:32.737Z,27.50
2022-12-17T07:31:20.937Z,30.43
2022-12-17T07:34:06.422Z,29.23
2022-12-17T07:36:52.163Z,23.47
2022-12-17T07:39:49.255Z,24.50
2022-12-17T07:42:36.742Z,23.33
2022-12-17T07:45:24.677Z,24.33
2022-12-17T07:48:10.587Z,25.50
2022-12-17T07:50:56.284Z,27.30
2022-12-17T07:53:41.767Z,27.40
2022-12-17T07:56:27.444Z,27.03
2022-12-17T07:59:13.479Z,28.73
2022-12-17T08:02:00.634Z,26.30
2022-12-17T08:04:47.793Z,28.10
2022-12-17T08:07:33.098Z,33.63
2022-12-17T08:10:18.859Z,28.47
2022-12-17T08:13:14.343Z,31.70
2022-12-17T08:16:00.186Z,28.97
2022-12-17T08:18:47.419Z,34.90
2022-12-17T08:21:33.512Z,28.10
2022-12-17T08:24:30.807Z,31.90
2022-12-17T08:27:16.754Z,37.93
2022-12-17T08:30:02.052Z,35.60
2022-12-17T08:32:47.628Z,25.80
2022-12-17T08:35:34.713Z,49.70
2022-12-17T08:38:21.432Z,49.30
2022-12-17T08:41:07.092Z,52.37
2022-12-17T08:43:52.425Z,43.17
2022-12-17T08:46:37.911Z,44.37
2022-12-17T08:49:23.622Z,46.30
2022-12-17T08:52:06.922Z,40.50
2022-12-17T08:54:52.845Z,46.53
2022-12-17T08:57:38.486Z,44.40
2022-12-17T09:00:25.038Z,40.03
2022-12-17T09:03:24.117Z,38.43
2022-12-17T09:06:11.304Z,39.07
2022-12-17T09:08:58.312Z,40.83
2022-12-17T09:11:44.102Z,49.43
2022-12-17T09:14:29.461Z,42.80
2022-12-17T09:17:15.184Z,47.13
2022-12-17T09:20:00.856Z,41.80
2022-12-17T09:22:46.346Z,46.17
2022-12-17T09:25:33.588Z,34.60
2022-12-17T09:28:19.709Z,32.43
2022-12-17T09:31:05.404Z,35.13
2022-12-17T09:33:51.291Z,34.33
2022-12-17T09:36:46.523Z,30.53
2022-12-17T09:39:35.377Z,34.40
2022-12-17T09:42:31.745Z,37.13
2022-12-17T09:45:22.968Z,34.77
2022-12-17T09:48:16.592Z,27.57
2022-12-17T09:51:03.869Z,33.17
2022-12-17T09:53:55.956Z,35.33
2022-12-17T09:56:44.256Z,32.97
2022-12-17T09:59:38.593Z,29.77
2022-12-17T10:02:32.122Z,30.07
2022-12-17T10:05:19.014Z,29.83
2022-12-17T10:08:06.051Z,30.57
2022-12-17T10:10:52.510Z,30.87
2022-12-17T10:13:39.787Z,29.40
2022-12-17T10:16:43.246Z,24.83
2022-12-17T10:19:34.491Z,25.97
2022-12-17T10:22:28.881Z,24.30
2022-12-17T10:25:14.613Z,28.97
2022-12-17T10:28:00.548Z,24.07
2022-12-17T10:30:47.668Z,24.90
2022-12-17T10:33:50.432Z,24.97
2022-12-17T10:36:39.961Z,22.23
2022-12-17T10:39:33.273Z,25.80
2022-12-17T10:42:18.603Z,29.47
2022-12-17T10:45:04.256Z,24.60
2022-12-17T10:47:51.838Z,28.70
2022-12-17T10:50:55.305Z,24.07
2022-12-17T10:53:43.841Z,25.90
2022-12-17T10:56:40.734Z,25.77
2022-12-17T10:59:31.041Z,29.20
2022-12-17T11:02:17.911Z,24.40
2022-12-17T11:05:19.637Z,22.87
2022-12-17T11:08:07.925Z,25.70
2022-12-17T11:11:00.516Z,25.60
2022-12-17T11:13:49.471Z,24.10
2022-12-17T11:16:41.459Z,21.87
2022-12-17T11:19:44.427Z,25.00
2022-12-17T11:22:40.033Z,27.10
2022-12-17T11:25:41.652Z,21.63
2022-12-17T11:28:33.779Z,24.70
2022-12-17T11:31:29.395Z,22.03
2022-12-17T11:34:19.724Z,21.87
2022-12-17T11:37:15.783Z,26.97
2022-12-17T11:40:08.912Z,23.73
2022-12-17T11:43:02.832Z,23.03
2022-12-17T11:45:52.222Z,26.13
2022-12-17T11:48:43.715Z,23.00
2022-12-17T11:51:35.944Z,17.57
2022-12-17T11:54:30.648Z,21.63
2022-12-17T11:57:34.631Z,22.13
2022-12-17T12:00:31.922Z,18.93
2022-12-17T12:03:27.549Z,21.30
2022-12-17T12:06:17.604Z,19.57
2022-12-17T12:09:21.484Z,16.60
2022-12-17T12:12:15.179Z,22.07
2022-12-17T12:15:09.314Z,20.70
2022-12-17T12:18:05.125Z,19.17
2022-12-17T12:21:07.779Z,20.73
2022-12-17T12:24:01.839Z,20.23
2022-12-17T12:26:52.472Z,21.52
2022-12-17T12:29:51.899Z,21.33
2022-12-17T12:32:44.595Z,21.60
2022-12-17T12:35:36.598Z,21.05
2022-12-17T12:38:22.810Z,20.67
2022-12-17T12:41:16.881Z,20.33
2022-12-17T12:44:10.454Z,20.52
2022-12-17T12:47:00.538Z,23.10
2022-12-17T12:49:53.442Z,20.08
2022-12-17T12:52:43.608Z,22.63
2022-12-17T12:55:30.109Z,19.48
2022-12-17T12:58:20.445Z,23.17
2022-12-17T13:01:13.518Z,19.80
2022-12-17T13:04:08.882Z,22.95
2022-12-17T13:06:43.443Z,23.90
2022-12-17T13:09:34.914Z,22.48
2022-12-17T13:12:31.241Z,26.10
2022-12-17T13:15:19.554Z,28.20
2022-12-17T13:17:58.790Z,32.17
2022-12-17T13:20:30.106Z,22.27
2022-12-17T13:23:18.411Z,21.95
2022-12-17T13:25:47.901Z,28.10
2022-12-17T13:28:29.657Z,23.90
2022-12-17T13:31:05.935Z,20.38
2022-12-17T13:33:41.084Z,19.67
2022-12-17T13:36:19.213Z,16.58
2022-12-17T13:38:56.673Z,17.33
2022-12-17T13:41:31.935Z,19.98
2022-12-17T13:44:03.443Z,24.05
2022-12-17T13:46:46.654Z,18.02
2022-12-17T13:49:19.376Z,16.42
2022-12-17T13:51:48.113Z,20.50
2022-12-17T13:54:18.318Z,20.85
2022-12-17T13:56:47.862Z,22.23
2022-12-17T13:59:21.355Z,22.33
2022-12-17T14:01:51.231Z,26.98
2022-12-17T14:04:24.722Z,20.33
2022-12-17T14:06:53.865Z,22.40
2022-12-17T14:09:25.637Z,20.20
2022-12-17T14:12:13.431Z,23.13
2022-12-17T14:14:44.436Z,21.37
2022-12-17T14:17:19.589Z,25.03
2022-12-17T14:19:48.500Z,20.77
2022-12-17T14:22:21.545Z,18.93
2022-12-17T14:24:49.894Z,20.93
2022-12-17T14:27:27.475Z,21.67
2022-12-17T14:29:56.857Z,22.20
2022-12-17T14:32:27.827Z,18.10
2022-12-17T14:35:00.575Z,23.10
2022-12-17T14:37:30.298Z,18.97
2022-12-17T14:40:02.953Z,16.30
2022-12-17T14:42:36.945Z,20.10
2022-12-17T14:45:09.175Z,18.93
2022-12-17T14:47:38.829Z,13.17
2022-12-17T14:50:25.578Z,15.17
2022-12-17T14:52:55.184Z,16.50
2022-12-17T14:55:29.051Z,18.50
2022-12-17T14:58:15.108Z,16.87
2022-12-17T15:00:48.076Z,14.53
2022-12-17T15:03:21.041Z,14.73
2022-12-17T15:05:53.634Z,15.57
2022-12-17T15:08:22.745Z,15.20
2022-12-17T15:10:50.860Z,16.27
2022-12-17T15:13:20.760Z,21.53
2022-12-17T15:15:48.936Z,16.53
2022-12-17T15:18:17.064Z,21.40
2022-12-17T15:20:45.478Z,19.73
2022-12-17T15:23:17.777Z,20.67
2022-12-17T15:25:47.295Z,23.77
2022-12-17T15:28:17.153Z,22.83
2022-12-17T15:30:47.145Z,26.37
2022-12-17T15:33:15.637Z,23.27
2022-12-17T15:35:44.431Z,26.40
2022-12-17T15:38:14.177Z,22.53
2022-12-17T15:40:42.484Z,26.23
2022-12-17T15:43:13.548Z,23.90
2022-12-17T15:45:47.641Z,22.13
2022-12-17T15:48:17.599Z,18.73
2022-12-17T15:50:45.687Z,19.80
2022-12-17T15:53:13.916Z,14.83
2022-12-17T15:55:42.237Z,11.83
2022-12-17T15:58:11.721Z,12.27
2022-12-17T16:00:39.977Z,19.27
2022-12-17T16:03:09.555Z,23.33
2022-12-17T16:05:37.681Z,25.57
2022-12-17T16:08:06.201Z,27.70
2022-12-17T16:10:34.261Z,30.83
2022-12-17T16:13:02.308Z,21.60
2022-12-17T16:15:30.575Z,19.30
2022-12-17T16:17:58.949Z,15.17
2022-12-17T16:20:28.494Z,18.07
2022-12-17T16:22:56.718Z,22.63
2022-12-17T16:25:24.787Z,17.03
2022-12-17T16:27:52.932Z,21.77
2022-12-17T16:30:21.036Z,18.80
2022-12-17T16:32:49.149Z,17.10
2022-12-17T16:35:17.292Z,28.43
2022-12-17T16:37:46.687Z,25.53
2022-12-17T16:40:14.747Z,43.83
2022-12-17T16:42:43.050Z,33.93
2022-12-17T16:45:11.870Z,51.10
2022-12-17T16:47:39.977Z,47.43
2022-12-17T16:50:08.464Z,37.47
2022-12-17T16:52:36.520Z,26.83
2022-12-17T16:55:06.493Z,39.93
2022-12-17T16:57:34.653Z,54.33
2022-12-17T17:00:04.651Z,64.70
2022-12-17T17:02:33.479Z,41.93
2022-12-17T17:05:01.816Z,60.07
2022-12-17T17:07:29.914Z,36.50
2022-12-17T17:09:58.130Z,46.83
2022-12-17T17:12:27.678Z,35.20
2022-12-17T17:14:55.857Z,42.10
2022-12-17T17:17:54.572Z,22.53
2022-12-17T17:20:14.725Z,32.70
2022-12-17T17:22:43.381Z,31.33
2022-12-17T17:25:11.641Z,23.83
2022-12-17T17:27:41.213Z,20.67
2022-12-17T17:30:11.703Z,27.00
2022-12-17T17:32:39.903Z,32.83
2022-12-17T17:35:11.237Z,36.70
2022-12-17T17:37:39.593Z,31.60
2022-12-17T17:40:09.015Z,35.00
2022-12-17T17:42:37.088Z,35.20
2022-12-17T17:45:08.859Z,27.20
2022-12-17T17:47:37.004Z,22.97
2022-12-17T17:50:05.541Z,16.73
2022-12-17T17:52:33.740Z,17.37
2022-12-17T17:55:02.402Z,17.70
2022-12-17T17:57:30.505Z,15.43
2022-12-17T17:59:58.583Z,14.47
2022-12-17T18:02:28.401Z,16.47
2022-12-17T18:04:59.747Z,21.03
2022-12-17T18:07:28.571Z,18.00
2022-12-17T18:09:59.615Z,13.93
2022-12-17T18:12:44.965Z,15.47
2022-12-17T18:15:15.386Z,19.07
2022-12-17T18:17:46.785Z,37.67
2022-12-17T18:20:15.898Z,29.93
2022-12-17T18:22:46.078Z,31.63
2022-12-17T18:25:15.439Z,35.07
2022-12-17T18:27:43.589Z,21.57
2022-12-17T18:30:12.683Z,38.97
2022-12-17T18:32:40.882Z,36.97
2022-12-17T18:35:12.151Z,50.53
2022-12-17T18:37:40.270Z,40.30
2022-12-17T18:40:09.620Z,37.73
2022-12-17T18:42:55.513Z,43.63
2022-12-17T18:45:23.812Z,47.77
2022-12-17T18:47:52.297Z,43.17
2022-12-17T18:50:22.272Z,37.77
2022-12-17T18:52:50.360Z,34.57
2022-12-17T18:55:18.534Z,28.77
2022-12-17T18:57:46.683Z,31.97
2022-12-17T19:00:15.964Z,28.60
2022-12-17T19:02:44.309Z,21.70
2022-12-17T19:05:12.591Z,15.67
2022-12-17T19:07:42.295Z,14.37
2022-12-17T19:10:11.205Z,12.70
2022-12-17T19:12:39.345Z,14.33
2022-12-17T19:15:08.652Z,14.90
2022-12-17T19:17:36.735Z,12.47
2022-12-17T19:20:05.103Z,16.33
2022-12-17T19:22:33.181Z,14.90
2022-12-17T19:25:02.632Z,17.90
2022-12-17T19:27:30.708Z,19.20
2022-12-17T19:29:58.866Z,19.30
2022-12-17T19:32:26.962Z,19.03
2022-12-17T19:34:55.022Z,23.53
2022-12-17T19:37:23.058Z,17.93
2022-12-17T19:39:51.137Z,19.30
2022-12-17T19:42:31.944Z,14.30
2022-12-17T19:45:05.284Z,22.87
2022-12-17T19:47:33.412Z,41.00
2022-12-17T19:50:01.556Z,81.40
2022-12-17T19:52:29.667Z,70.03
2022-12-17T19:54:57.812Z,48.73
2022-12-17T19:57:27.244Z,52.17
2022-12-17T19:59:55.350Z,50.87
2022-12-17T20:02:27.028Z,47.53
2022-12-17T20:04:57.819Z,36.73
2022-12-17T20:07:25.990Z,22.63
2022-12-17T20:09:54.227Z,19.83
2022-12-17T20:12:22.352Z,27.77
2022-12-17T20:14:51.876Z,33.70
2022-12-17T20:17:20.387Z,42.10
2022-12-17T20:19:52.251Z,41.80
2022-12-17T20:22:21.561Z,40.57
2022-12-17T20:24:49.635Z,36.87
2022-12-17T20:27:18.021Z,34.37
2022-12-17T20:29:46.105Z,33.03
2022-12-17T20:32:19.332Z,27.00
2022-12-17T20:34:47.596Z,31.03
2022-12-17T20:37:15.825Z,21.47
2022-12-17T20:39:43.952Z,22.13
2022-12-17T20:42:12.073Z,30.07
2022-12-17T20:44:40.330Z,19.30
2022-12-17T20:47:08.525Z,20.00
2022-12-17T20:49:37.995Z,26.37
2022-12-17T20:52:13.275Z,26.03
2022-12-17T20:54:53.090Z,18.63
2022-12-17T20:57:26.031Z,26.00
2022-12-17T21:00:02.624Z,20.70
2022-12-17T21:02:47.541Z,16.13
2022-12-17T21:05:32.923Z,19.50
2022-12-17T21:08:08.976Z,21.20
2022-12-17T21:10:47.275Z,19.93
2022-12-17T21:13:30.871Z,25.93
2022-12-17T21:16:04.464Z,24.97
2022-12-17T21:18:33.862Z,22.90
2022-12-17T21:21:05.820Z,23.43
2022-12-17T21:23:37.767Z,28.80
2022-12-17T21:26:08.696Z,21.93
2022-12-17T21:28:40.267Z,13.50
2022-12-17T21:31:16.909Z,19.53
2022-12-17T21:33:45.852Z,13.67
2022-12-17T21:36:16.778Z,11.50
2022-12-17T21:38:45.550Z,16.57
2022-12-17T21:41:17.517Z,16.97
2022-12-17T21:43:46.781Z,12.77
2022-12-17T21:46:16.294Z,15.13
2022-12-17T21:48:45.736Z,13.27
2022-12-17T21:51:16.616Z,8.77
2022-12-17T21:53:45.389Z,6.93
2022-12-17T21:56:16.025Z,8.97
2022-12-17T21:58:46.893Z,7.90
2022-12-17T22:01:19.380Z,16.13
2022-12-17T22:03:53.050Z,27.87
2022-12-17T22:06:31.334Z,17.90
2022-12-17T22:09:12.229Z,20.93
2022-12-17T22:12:11.073Z,18.57
2022-12-17T22:14:38.388Z,12.70
2022-12-17T22:17:06.969Z,14.87
2022-12-17T22:19:35.240Z,15.10
2022-12-17T22:22:04.796Z,12.27
2022-12-17T22:24:36.261Z,16.83
2022-12-17T22:27:09.734Z,13.33
2022-12-17T22:29:55.741Z,16.43
2022-12-17T22:32:41.986Z,18.20
2022-12-17T22:36:13.623Z,12.70
2022-12-17T22:41:27.968Z,13.97
2022-12-17T22:44:37.197Z,10.00
2022-12-17T22:44:43.342Z,14.73
2022-12-17T22:46:24.749Z,16.27
2022-12-17T22:48:53.302Z,13.67
2022-12-17T22:51:25.604Z,14.70
2022-12-17T22:54:09.977Z,8.23
2022-12-17T22:57:03.447Z,14.57
2022-12-17T22:59:33.247Z,10.60
2022-12-17T23:02:05.327Z,11.73
2022-12-17T23:04:34.175Z,13.03
2022-12-17T23:07:03.259Z,13.73
2022-12-17T23:09:34.799Z,16.67
2022-12-17T23:12:24.499Z,8.40
2022-12-17T23:14:56.436Z,8.90
2022-12-17T23:17:27.076Z,9.53
2022-12-17T23:19:57.663Z,11.23
2022-12-17T23:22:27.142Z,11.57
2022-12-17T23:25:00.188Z,9.87
2022-12-17T23:27:31.784Z,10.33
2022-12-17T23:30:02.506Z,8.70
2022-12-17T23:32:35.356Z,13.50
2022-12-17T23:35:11.261Z,11.47
2022-12-17T23:37:44.409Z,9.27
2022-12-17T23:40:15.928Z,8.93
2022-12-17T23:42:46.462Z,12.33
2022-12-17T23:45:21.214Z,11.87
2022-12-17T23:47:54.026Z,8.80
2022-12-17T23:50:23.870Z,9.67
2022-12-17T23:52:56.192Z,13.63
2022-12-17T23:55:29.003Z,10.57
2022-12-17T23:58:01.358Z,9.63
